Time;durP1;ratioP1;P1;durP2;ratioP2;P2;SDS_P1;SDS_P2;PMS_P1;PMS_P2;Temp;Humidity;BMP_temperature;BMP_pressure;BME280_temperature;BME280_humidity;BME280_pressure;Samples;Min_cycle;Max_cycle;Signal;HPM_P1;HPM_P2
2021/10/07 00:01:03;;;;;;;4.30;4.00;;;13.70;68.80;;;;;;5028512;28;20037;-83
2021/10/07 00:03:29;;;;;;;4.18;3.97;;;13.70;68.90;;;;;;5030817;28;20017;-84
2021/10/07 00:05:56;;;;;;;4.32;4.13;;;13.70;69.00;;;;;;5044626;28;20033;-84
2021/10/07 00:08:22;;;;;;;4.40;4.20;;;13.70;69.10;;;;;;5016061;28;20028;-83
2021/10/07 00:10:48;;;;;;;4.03;3.83;;;13.60;69.10;;;;;;5032453;28;20627;-83
2021/10/07 00:13:15;;;;;;;4.07;3.88;;;13.60;69.10;;;;;;5033747;28;20029;-83
2021/10/07 00:15:41;;;;;;;4.07;3.88;;;13.60;69.10;;;;;;5032613;28;20038;-83
2021/10/07 00:18:07;;;;;;;4.20;4.00;;;13.60;69.10;;;;;;5032169;28;20045;-84
2021/10/07 00:20:33;;;;;;;4.47;4.28;;;13.60;69.20;;;;;;5031519;28;20034;-83
2021/10/07 00:22:59;;;;;;;4.10;3.90;;;13.60;69.20;;;;;;5031813;28;20029;-83
2021/10/07 00:25:25;;;;;;;4.50;4.20;;;13.50;69.20;;;;;;5062561;28;20021;-84
2021/10/07 00:27:55;;;;;;;4.35;4.15;;;13.50;69.20;;;;;;5034148;28;20132;-84
2021/10/07 00:30:22;;;;;;;4.20;4.00;;;13.50;69.30;;;;;;5032641;28;20037;-84
2021/10/07 00:33:15;;;;;;;4.28;4.07;;;13.50;69.30;;;;;;5031579;28;20049;-83
2021/10/07 00:40:48;;;;;;;4.20;4.00;;;13.40;69.40;;;;;;5035312;28;20052;-84
2021/10/07 00:43:14;;;;;;;4.30;4.10;;;13.40;69.40;;;;;;5065167;28;20026;-83
2021/10/07 00:45:40;;;;;;;4.05;3.85;;;13.40;69.30;;;;;;5014222;28;20037;-83
2021/10/07 00:48:06;;;;;;;3.90;3.70;;;13.40;69.40;;;;;;5034830;28;20037;-83
2021/10/07 00:50:32;;;;;;;4.40;4.10;;;13.40;69.40;;;;;;5031474;28;20407;-84
2021/10/07 00:52:59;;;;;;;4.45;4.25;;;13.40;69.40;;;;;;5015366;28;20025;-83
2021/10/07 00:55:25;;;;;;;4.32;4.13;;;13.40;69.50;;;;;;5030697;28;20037;-83
2021/10/07 00:57:51;;;;;;;4.30;4.10;;;13.30;69.50;;;;;;5065594;28;20041;-83
2021/10/07 01:00:17;;;;;;;4.53;4.30;;;13.30;69.50;;;;;;5032276;28;20049;-84
2021/10/07 01:02:43;;;;;;;4.10;3.90;;;13.30;69.60;;;;;;5032726;28;20381;-83
2021/10/07 01:05:09;;;;;;;4.00;3.80;;;13.30;69.60;;;;;;5031097;28;20041;-83
2021/10/07 01:07:35;;;;;;;3.70;3.50;;;13.30;69.70;;;;;;5032139;28;20025;-83
2021/10/07 01:10:01;;;;;;;4.63;4.35;;;13.30;69.70;;;;;;5033213;28;20041;-83
2021/10/07 01:12:27;;;;;;;4.07;3.88;;;13.30;69.70;;;;;;5032240;28;20523;-83
2021/10/07 01:14:54;;;;;;;4.28;4.07;;;13.30;69.80;;;;;;5032851;28;20034;-83
2021/10/07 01:17:23;;;;;;;3.40;3.30;;;13.20;69.80;;;;;;5029666;28;20367;-83
2021/10/07 01:19:50;;;;;;;4.15;3.88;;;13.20;69.80;;;;;;5043415;28;20488;-83
2021/10/07 01:22:17;;;;;;;4.07;3.88;;;13.20;69.80;;;;;;5058179;28;20040;-84
2021/10/07 01:24:43;;;;;;;4.15;3.95;;;13.20;69.90;;;;;;5030230;28;20025;-84
2021/10/07 01:27:10;;;;;;;3.80;3.60;;;13.10;69.90;;;;;;5032311;28;20383;-83
2021/10/07 01:29:37;;;;;;;3.90;3.70;;;13.10;69.90;;;;;;5030841;28;20049;-83
2021/10/07 01:32:04;;;;;;;3.70;3.50;;;13.10;69.90;;;;;;5032372;28;20033;-83
2021/10/07 01:34:30;;;;;;;3.92;3.72;;;13.10;70.00;;;;;;5061954;28;20033;-83
2021/10/07 01:36:56;;;;;;;3.72;3.53;;;13.10;70.00;;;;;;5031895;28;20029;-83
2021/10/07 01:39:23;;;;;;;3.90;3.70;;;13.10;70.00;;;;;;5014649;28;20022;-83
2021/10/07 01:41:49;;;;;;;3.60;3.45;;;13.10;70.00;;;;;;5032535;28;20040;-83
2021/10/07 01:44:17;;;;;;;3.90;3.70;;;13.10;70.10;;;;;;5060422;28;20034;-83
2021/10/07 01:46:43;;;;;;;3.75;3.55;;;13.10;70.10;;;;;;5046622;28;20045;-83
2021/10/07 01:49:09;;;;;;;4.22;4.03;;;13.10;70.10;;;;;;5031071;28;20045;-83
2021/10/07 01:51:36;;;;;;;4.00;3.80;;;13.10;70.10;;;;;;5031063;28;20495;-83
2021/10/07 01:54:03;;;;;;;3.97;3.78;;;13.10;70.20;;;;;;5029480;28;20036;-83
2021/10/07 01:56:29;;;;;;;4.55;4.25;;;13.00;70.10;;;;;;5062552;28;20494;-83
2021/10/07 01:58:56;;;;;;;3.85;3.65;;;13.00;70.10;;;;;;5030557;28;20026;-83
2021/10/07 02:01:22;;;;;;;3.80;3.60;;;13.00;70.20;;;;;;5028885;28;20516;-83
2021/10/07 02:03:48;;;;;;;3.85;3.65;;;13.00;70.20;;;;;;5042661;28;20029;-83
2021/10/07 02:06:14;;;;;;;3.80;3.60;;;13.00;70.20;;;;;;5023179;28;20037;-83
2021/10/07 02:08:41;;;;;;;3.95;3.75;;;13.00;70.30;;;;;;5008926;28;20033;-83
2021/10/07 02:11:07;;;;;;;9.07;4.10;;;13.00;70.30;;;;;;5025716;28;20052;-83
2021/10/07 02:13:33;;;;;;;3.83;3.63;;;12.90;70.30;;;;;;5029231;28;20025;-83
2021/10/07 02:15:59;;;;;;;3.88;3.67;;;12.90;70.40;;;;;;5031664;28;20060;-83
2021/10/07 02:18:26;;;;;;;3.88;3.67;;;12.90;70.40;;;;;;5029731;28;20037;-84
2021/10/07 02:20:52;;;;;;;3.88;3.67;;;12.90;70.50;;;;;;5056956;28;20472;-84
2021/10/07 02:23:18;;;;;;;4.20;4.00;;;12.80;70.50;;;;;;5029473;28;20042;-84
2021/10/07 02:25:45;;;;;;;3.88;3.67;;;12.90;70.60;;;;;;5028435;28;20400;-84
2021/10/07 02:28:11;;;;;;;3.67;3.47;;;12.90;70.60;;;;;;5028860;28;20045;-83
2021/10/07 02:30:37;;;;;;;3.53;3.40;;;12.80;70.60;;;;;;5029269;28;20045;-83
2021/10/07 02:33:03;;;;;;;3.45;3.35;;;12.80;70.70;;;;;;5029718;28;20041;-83
2021/10/07 02:35:29;;;;;;;3.72;3.53;;;12.80;70.70;;;;;;5029101;28;20041;-83
2021/10/07 02:37:55;;;;;;;3.55;3.40;;;12.80;70.70;;;;;;5030139;28;20029;-83
2021/10/07 02:40:21;;;;;;;3.70;3.50;;;12.80;70.70;;;;;;5063728;28;20041;-83
2021/10/07 02:42:47;;;;;;;3.60;3.40;;;12.80;70.70;;;;;;5028057;28;20508;-83
2021/10/07 02:45:14;;;;;;;3.70;3.50;;;12.80;70.70;;;;;;5031678;28;20041;-83
2021/10/07 02:47:41;;;;;;;3.53;3.40;;;12.80;70.70;;;;;;5029899;28;20037;-83
2021/10/07 02:50:08;;;;;;;3.40;3.28;;;12.90;70.70;;;;;;5063158;28;20053;-83
2021/10/07 02:52:34;;;;;;;3.50;3.40;;;12.90;70.60;;;;;;5030668;28;20033;-84
2021/10/07 02:55:00;;;;;;;3.15;3.05;;;12.90;70.60;;;;;;5061747;28;20033;-84
2021/10/07 02:57:26;;;;;;;3.78;3.58;;;12.90;70.60;;;;;;5029499;28;20385;-83
2021/10/07 02:59:52;;;;;;;3.88;3.67;;;13.00;70.60;;;;;;5029234;28;20045;-84
2021/10/07 03:02:18;;;;;;;4.00;3.80;;;12.90;70.60;;;;;;5029406;28;20048;-83
2021/10/07 03:04:44;;;;;;;4.55;4.35;;;13.00;70.70;;;;;;5028768;28;20045;-83
2021/10/07 03:07:11;;;;;;;3.85;3.65;;;12.90;70.70;;;;;;5030315;28;20040;-83
2021/10/07 03:09:39;;;;;;;3.47;3.35;;;12.90;70.80;;;;;;5043897;28;20053;-84
2021/10/07 03:12:05;;;;;;;3.65;3.45;;;12.90;70.80;;;;;;5031352;28;20049;-83
2021/10/07 03:14:32;;;;;;;3.47;3.33;;;12.90;70.90;;;;;;5028523;28;20495;-84
2021/10/07 03:16:58;;;;;;;3.33;3.22;;;12.90;70.90;;;;;;5029393;28;20049;-83
2021/10/07 03:19:24;;;;;;;3.60;3.40;;;12.90;70.80;;;;;;5028357;28;20584;-84
2021/10/07 03:21:50;;;;;;;3.58;3.38;;;12.90;70.80;;;;;;5062745;28;20038;-83
2021/10/07 03:24:16;;;;;;;3.63;3.42;;;13.00;70.90;;;;;;5030407;28;20034;-84
2021/10/07 03:26:42;;;;;;;3.63;3.42;;;13.00;70.90;;;;;;5029274;28;20037;-84
2021/10/07 03:29:08;;;;;;;3.80;3.60;;;12.90;70.90;;;;;;5029749;28;20029;-84
2021/10/07 03:31:34;;;;;;;3.40;3.30;;;12.90;71.00;;;;;;5030402;28;20056;-85
2021/10/07 03:34:00;;;;;;;4.07;3.88;;;12.90;71.00;;;;;;5052690;28;20041;-84
2021/10/07 03:36:26;;;;;;;3.33;3.22;;;12.90;71.00;;;;;;5012483;28;20041;-84
2021/10/07 03:38:52;;;;;;;3.30;3.20;;;12.90;71.10;;;;;;5030532;28;20021;-84
2021/10/07 03:41:19;;;;;;;3.50;3.40;;;12.90;71.10;;;;;;5029647;28;20046;-84
2021/10/07 03:43:45;;;;;;;3.80;3.60;;;12.90;71.20;;;;;;5029683;28;20030;-84
2021/10/07 03:46:11;;;;;;;3.60;3.40;;;12.90;71.20;;;;;;5040379;28;20063;-84
2021/10/07 03:48:37;;;;;;;3.60;3.40;;;12.80;71.20;;;;;;5032408;28;20037;-84
2021/10/07 03:51:03;;;;;;;3.42;3.33;;;12.80;71.20;;;;;;5031561;28;20049;-84
2021/10/07 03:53:29;;;;;;;3.92;3.63;;;12.80;71.20;;;;;;5033130;28;20025;-83
2021/10/07 03:55:55;;;;;;;3.50;3.40;;;12.80;71.20;;;;;;5015225;28;20041;-84
2021/10/07 03:58:21;;;;;;;3.60;3.40;;;12.80;71.30;;;;;;5034486;28;20033;-83
2021/10/07 04:00:47;;;;;;;3.30;3.20;;;12.80;71.40;;;;;;5028893;28;20049;-83
2021/10/07 04:03:14;;;;;;;3.70;3.50;;;12.80;71.40;;;;;;5034566;28;20052;-83
2021/10/07 04:05:40;;;;;;;3.58;3.38;;;12.80;71.50;;;;;;5061536;28;20403;-83
2021/10/07 04:08:06;;;;;;;3.63;3.42;;;12.70;71.40;;;;;;5034260;28;20029;-83
2021/10/07 04:10:32;;;;;;;3.63;3.42;;;12.80;71.60;;;;;;5064688;28;20514;-84
2021/10/07 04:12:59;;;;;;;3.88;3.67;;;12.70;71.50;;;;;;5034438;28;20045;-83
2021/10/07 04:15:25;;;;;;;3.40;3.30;;;12.70;71.50;;;;;;5012589;28;20472;-84
2021/10/07 04:17:51;;;;;;;4.07;3.88;;;12.70;71.60;;;;;;5031766;28;20041;-84
2021/10/07 04:20:17;;;;;;;3.60;3.40;;;12.70;71.70;;;;;;5034316;28;20048;-84
2021/10/07 04:22:43;;;;;;;3.38;3.28;;;12.60;71.60;;;;;;5065583;28;20037;-84
2021/10/07 04:25:09;;;;;;;3.85;3.65;;;12.60;71.60;;;;;;5064160;28;20029;-84
2021/10/07 04:27:36;;;;;;;3.70;3.50;;;12.60;71.70;;;;;;5048736;28;20045;-84
2021/10/07 04:30:06;;;;;;;4.18;3.88;;;12.60;71.80;;;;;;5031242;28;20033;-84
2021/10/07 04:32:32;;;;;;;3.90;3.70;;;12.60;71.80;;;;;;5027681;28;20033;-84
2021/10/07 04:34:58;;;;;;;4.00;3.80;;;12.60;71.80;;;;;;5033075;28;20392;-83
2021/10/07 04:37:24;;;;;;;4.30;4.00;;;12.50;71.70;;;;;;5065847;28;20032;-84
2021/10/07 04:39:51;;;;;;;3.70;3.50;;;12.50;71.80;;;;;;5031523;28;20041;-84
2021/10/07 04:42:17;;;;;;;3.40;3.30;;;12.50;71.90;;;;;;5016044;28;20046;-84
2021/10/07 04:44:43;;;;;;;3.40;3.30;;;12.50;71.90;;;;;;5032464;28;20037;-84
2021/10/07 04:47:10;;;;;;;3.90;3.70;;;12.40;71.90;;;;;;5033057;28;20381;-84
2021/10/07 04:49:36;;;;;;;3.42;3.33;;;12.40;72.00;;;;;;5033153;28;20385;-84
2021/10/07 04:52:03;;;;;;;3.78;3.58;;;12.40;72.00;;;;;;5030476;28;20037;-84
2021/10/07 04:54:29;;;;;;;3.50;3.30;;;12.30;72.00;;;;;;5035198;28;20041;-83
2021/10/07 04:56:56;;;;;;;3.63;3.42;;;12.30;72.00;;;;;;5031985;28;20052;-84
2021/10/07 04:59:22;;;;;;;3.58;3.38;;;12.30;72.00;;;;;;5030969;28;20064;-84
2021/10/07 05:01:48;;;;;;;3.58;3.40;;;12.40;72.10;;;;;;5032516;28;20057;-84
2021/10/07 05:04:14;;;;;;;3.83;3.63;;;12.40;72.10;;;;;;5065574;28;20396;-84
2021/10/07 05:06:40;;;;;;;3.45;3.33;;;12.40;72.10;;;;;;5032533;28;20048;-84
2021/10/07 05:09:06;;;;;;;3.78;3.58;;;12.30;72.00;;;;;;5033931;28;20044;-84
2021/10/07 05:11:32;;;;;;;3.80;3.60;;;12.40;72.10;;;;;;5030678;28;20049;-84
2021/10/07 05:13:59;;;;;;;3.47;3.38;;;12.40;72.10;;;;;;5014148;28;20045;-83
2021/10/07 05:16:25;;;;;;;3.40;3.30;;;12.30;72.10;;;;;;5032938;28;20045;-84
2021/10/07 05:18:51;;;;;;;3.55;3.35;;;12.30;72.10;;;;;;5033103;28;20056;-84
2021/10/07 05:21:17;;;;;;;3.38;3.28;;;12.30;72.10;;;;;;5033847;28;20123;-84
2021/10/07 05:23:43;;;;;;;3.30;3.20;;;12.40;72.20;;;;;;5028750;28;20026;-84
2021/10/07 05:26:09;;;;;;;8.13;4.10;;;12.40;72.20;;;;;;5032292;28;20037;-84
2021/10/07 05:28:35;;;;;;;3.67;3.47;;;12.40;72.20;;;;;;5032592;28;20033;-84
2021/10/07 05:31:01;;;;;;;17.42;4.03;;;12.40;72.10;;;;;;5063687;28;20060;-85
2021/10/07 05:33:28;;;;;;;3.63;3.42;;;12.40;72.10;;;;;;5027268;28;20033;-84
2021/10/07 05:35:54;;;;;;;3.20;3.10;;;12.40;72.20;;;;;;5013972;28;20041;-84
2021/10/07 05:38:20;;;;;;;3.75;3.45;;;12.40;72.20;;;;;;5031870;28;20044;-84
2021/10/07 05:40:46;;;;;;;3.45;3.25;;;12.40;72.20;;;;;;5014257;28;20502;-84
2021/10/07 05:43:12;;;;;;;3.42;3.33;;;12.50;72.20;;;;;;5031561;28;20033;-84
2021/10/07 05:45:39;;;;;;;3.85;3.65;;;12.50;72.20;;;;;;5031631;28;20060;-85
2021/10/07 05:48:05;;;;;;;3.55;3.35;;;12.50;72.20;;;;;;5033159;28;20036;-84
2021/10/07 05:50:31;;;;;;;3.85;3.65;;;12.50;72.20;;;;;;5029949;28;20071;-83
2021/10/07 05:52:57;;;;;;;3.70;3.50;;;12.50;72.20;;;;;;5028957;28;20391;-83
2021/10/07 05:55:23;;;;;;;3.75;3.55;;;12.50;72.10;;;;;;5032145;28;20026;-82
2021/10/07 05:57:49;;;;;;;3.40;3.30;;;12.50;72.10;;;;;;5030302;28;20037;-84
2021/10/07 06:00:16;;;;;;;3.22;3.13;;;12.50;72.10;;;;;;5031903;28;20045;-85
2021/10/07 06:02:42;;;;;;;3.40;3.30;;;12.50;72.20;;;;;;5030511;28;20025;-84
2021/10/07 06:05:10;;;;;;;3.40;3.30;;;12.50;72.30;;;;;;5026459;28;20105;-84
2021/10/07 06:07:36;;;;;;;3.72;3.53;;;12.50;72.30;;;;;;5021244;28;20025;-83
2021/10/07 06:10:06;;;;;;;3.58;3.38;;;12.50;72.30;;;;;;5057044;28;20502;-84
2021/10/07 06:12:33;;;;;;;3.60;3.40;;;12.50;72.20;;;;;;5063508;28;20032;-84
2021/10/07 06:14:59;;;;;;;4.65;4.20;;;12.50;72.20;;;;;;5030701;28;20025;-83
2021/10/07 06:17:25;;;;;;;4.68;4.32;;;12.50;72.20;;;;;;5014170;28;20033;-84
2021/10/07 06:19:56;;;;;;;3.30;3.20;;;12.50;72.30;;;;;;5032360;28;20036;-83
2021/10/07 06:22:22;;;;;;;3.90;3.70;;;12.50;72.50;;;;;;5033726;28;20030;-83
2021/10/07 06:24:49;;;;;;;3.92;3.72;;;12.50;72.50;;;;;;5030938;28;20037;-83
2021/10/07 06:27:15;;;;;;;3.78;3.58;;;12.40;72.40;;;;;;5031056;28;20033;-83
2021/10/07 06:29:41;;;;;;;3.42;3.30;;;12.40;72.50;;;;;;5031916;28;20495;-83
2021/10/07 06:32:07;;;;;;;3.88;3.58;;;12.40;72.50;;;;;;5031808;28;20041;-83
2021/10/07 06:34:33;;;;;;;3.58;3.38;;;12.40;72.50;;;;;;5014614;28;20029;-82
2021/10/07 06:36:59;;;;;;;3.38;3.28;;;12.40;72.60;;;;;;5015375;28;20033;-81
2021/10/07 06:39:25;;;;;;;12.20;3.88;;;12.50;72.60;;;;;;5031434;28;20030;-82
2021/10/07 06:41:51;;;;;;;3.88;3.67;;;12.50;72.50;;;;;;5030659;28;20040;-82
2021/10/07 06:44:19;;;;;;;3.97;3.78;;;12.50;72.50;;;;;;5030295;28;20021;-83
2021/10/07 06:46:45;;;;;;;3.40;3.30;;;12.50;72.50;;;;;;5021619;28;20052;-82
2021/10/07 06:49:11;;;;;;;3.83;3.63;;;12.60;72.60;;;;;;5027938;28;20037;-82
2021/10/07 06:51:37;;;;;;;4.30;3.92;;;12.60;72.60;;;;;;5031916;28;20488;-82
2021/10/07 06:54:03;;;;;;;4.15;3.95;;;12.60;72.60;;;;;;5031978;28;20013;-82
2021/10/07 06:56:29;;;;;;;5.43;4.00;;;12.50;72.50;;;;;;5030956;28;20381;-83
2021/10/07 06:58:55;;;;;;;3.92;3.72;;;12.60;72.60;;;;;;5063118;28;20396;-82
2021/10/07 07:01:28;;;;;;;3.63;3.42;;;12.50;72.60;;;;;;5031149;28;20045;-82
2021/10/07 07:03:55;;;;;;;4.03;3.83;;;12.60;72.60;;;;;;5036443;28;20045;-82
2021/10/07 07:06:21;;;;;;;4.32;4.03;;;12.60;72.60;;;;;;5031073;28;20024;-81
2021/10/07 07:08:47;;;;;;;4.13;3.83;;;12.60;72.50;;;;;;5033523;28;20034;-84
2021/10/07 07:11:14;;;;;;;4.05;3.85;;;12.70;72.50;;;;;;5045910;28;20065;-84
2021/10/07 07:13:40;;;;;;;4.97;4.47;;;12.70;72.50;;;;;;5031432;28;20029;-82
2021/10/07 07:16:06;;;;;;;3.67;3.47;;;12.70;72.50;;;;;;5032804;28;20124;-82
2021/10/07 07:18:32;;;;;;;3.70;3.50;;;12.80;72.50;;;;;;5051942;28;20380;-81
2021/10/07 07:20:58;;;;;;;3.90;3.70;;;12.90;72.40;;;;;;5034958;28;20041;-82
2021/10/07 07:23:24;;;;;;;3.90;3.70;;;12.90;72.40;;;;;;5035528;28;20421;-81
2021/10/07 07:25:50;;;;;;;3.63;3.45;;;12.90;72.30;;;;;;5036599;28;20040;-82
2021/10/07 07:28:17;;;;;;;5.47;3.47;;;13.00;72.30;;;;;;5040172;28;20033;-81
2021/10/07 07:30:43;;;;;;;3.80;3.60;;;13.00;72.20;;;;;;5040344;28;20486;-81
2021/10/07 07:33:09;;;;;;;3.33;3.22;;;13.10;72.20;;;;;;5034693;28;20048;-81
2021/10/07 07:35:36;;;;;;;4.00;3.80;;;13.20;72.20;;;;;;5037180;28;20078;-82
2021/10/07 07:38:04;;;;;;;3.80;3.60;;;13.20;72.10;;;;;;5067227;28;20412;-81
2021/10/07 07:40:31;;;;;;;3.75;3.55;;;13.30;72.00;;;;;;5035173;28;20068;-81
2021/10/07 07:42:58;;;;;;;3.47;3.35;;;13.30;72.00;;;;;;5050473;28;20041;-81
2021/10/07 07:45:24;;;;;;;3.97;3.78;;;13.30;72.00;;;;;;5033852;28;20030;-82
2021/10/07 07:47:51;;;;;;;3.92;3.72;;;13.30;72.10;;;;;;5035411;28;20038;-87
2021/10/07 07:50:18;;;;;;;3.90;3.70;;;13.30;72.10;;;;;;5033190;28;20044;-82
2021/10/07 07:52:48;;;;;;;4.10;3.88;;;13.30;72.20;;;;;;5035289;28;20037;-82
2021/10/07 07:55:14;;;;;;;3.72;3.53;;;13.40;72.20;;;;;;5034955;28;20391;-83
2021/10/07 07:57:40;;;;;;;4.68;4.40;;;13.40;72.20;;;;;;5066658;28;20479;-81
2021/10/07 08:00:07;;;;;;;4.45;4.25;;;13.40;72.10;;;;;;5017377;28;20049;-82
2021/10/07 08:02:33;;;;;;;4.18;3.95;;;13.40;72.20;;;;;;5034599;28;20030;-82
2021/10/07 08:04:59;;;;;;;4.30;4.10;;;13.40;72.20;;;;;;5034759;28;20029;-81
2021/10/07 08:07:27;;;;;;;3.90;3.70;;;13.50;72.30;;;;;;5033364;28;20063;-82
2021/10/07 08:09:53;;;;;;;4.10;3.90;;;13.50;72.40;;;;;;5065575;28;20480;-82
2021/10/07 08:12:19;;;;;;;4.30;4.10;;;13.50;72.40;;;;;;5037510;28;20053;-83
2021/10/07 08:14:46;;;;;;;11.95;4.25;;;13.50;72.40;;;;;;5034245;28;20048;-84
2021/10/07 08:17:13;;;;;;;4.20;4.00;;;13.60;72.40;;;;;;5032584;28;20032;-82
2021/10/07 08:19:41;;;;;;;4.63;4.43;;;13.70;72.40;;;;;;5034043;28;20040;-81
2021/10/07 08:22:07;;;;;;;4.47;4.15;;;13.70;72.40;;;;;;5034378;28;20033;-83
2021/10/07 08:24:33;;;;;;;4.15;3.95;;;13.70;72.40;;;;;;5066059;28;20041;-83
2021/10/07 08:27:00;;;;;;;4.25;4.05;;;13.70;72.40;;;;;;5032432;28;20044;-83
2021/10/07 08:29:26;;;;;;;4.28;4.07;;;13.80;72.30;;;;;;5034113;28;20256;-84
2021/10/07 08:31:52;;;;;;;3.90;3.70;;;13.90;72.30;;;;;;5033587;28;20056;-84
2021/10/07 08:34:18;;;;;;;4.10;3.90;;;14.00;72.20;;;;;;5049268;28;20025;-84
2021/10/07 08:36:46;;;;;;;4.07;3.88;;;14.10;72.00;;;;;;5066145;28;20041;-84
2021/10/07 08:39:13;;;;;;;4.18;3.97;;;14.30;71.90;;;;;;5014940;28;20045;-83
2021/10/07 08:41:40;;;;;;;4.07;3.88;;;14.40;71.80;;;;;;5029837;28;20049;-82
2021/10/07 08:44:06;;;;;;;4.32;4.13;;;14.50;71.60;;;;;;5032318;28;20044;-83
2021/10/07 08:46:33;;;;;;;4.65;4.45;;;14.60;71.60;;;;;;5024030;28;20033;-83
2021/10/07 08:49:00;;;;;;;4.10;3.90;;;14.60;71.60;;;;;;5034074;28;20044;-84
2021/10/07 08:51:27;;;;;;;4.90;4.47;;;14.60;71.70;;;;;;5032847;28;20486;-84
2021/10/07 08:53:53;;;;;;;3.92;3.72;;;14.60;71.70;;;;;;5049128;28;20048;-83
2021/10/07 08:56:20;;;;;;;4.10;3.90;;;14.70;71.80;;;;;;5032496;28;20044;-87
2021/10/07 08:58:47;;;;;;;4.00;3.80;;;14.80;71.70;;;;;;5033020;28;20034;-83
2021/10/07 09:01:45;;;;;;;4.30;4.10;;;14.90;71.60;;;;;;5032824;28;20514;-82
2021/10/07 09:04:27;;;;;;;4.05;3.75;;;15.10;71.50;;;;;;5017877;28;20495;-80
2021/10/07 09:06:58;;;;;;;3.97;3.78;;;15.20;71.20;;;;;;5033073;28;20030;-80
2021/10/07 09:09:25;;;;;;;4.18;3.97;;;15.30;71.00;;;;;;5032642;28;20030;-79
2021/10/07 09:12:02;;;;;;;4.00;3.80;;;15.40;70.90;;;;;;5032231;28;20033;-79
2021/10/07 09:14:35;;;;;;;3.90;3.70;;;15.40;70.90;;;;;;5032395;28;20017;-79
2021/10/07 09:17:01;;;;;;;3.92;3.72;;;15.60;70.90;;;;;;5032748;28;20034;-79
2021/10/07 09:19:36;;;;;;;4.30;4.10;;;15.60;70.80;;;;;;5032356;28;20343;-78
2021/10/07 09:22:21;;;;;;;4.15;3.95;;;15.70;70.80;;;;;;5017063;28;20053;-78
2021/10/07 09:25:00;;;;;;;4.38;4.07;;;15.70;70.80;;;;;;5012518;28;20507;-78
2021/10/07 09:27:28;;;;;;;4.25;4.05;;;15.80;70.80;;;;;;5022774;28;20041;-78
2021/10/07 09:30:07;;;;;;;4.60;4.40;;;15.90;70.70;;;;;;5023950;28;20033;-78
2021/10/07 09:32:44;;;;;;;4.40;4.20;;;15.90;70.70;;;;;;5030510;28;20381;-78
2021/10/07 09:35:14;;;;;;;4.18;3.97;;;16.00;70.60;;;;;;5025613;28;20038;-78
2021/10/07 09:37:45;;;;;;;4.60;4.40;;;16.10;70.50;;;;;;5031467;28;20025;-78
2021/10/07 09:40:12;;;;;;;4.13;3.92;;;16.20;70.50;;;;;;5030978;28;20042;-84
2021/10/07 09:42:53;;;;;;;9.23;5.65;;;16.20;70.40;;;;;;5025890;28;20476;-84
2021/10/07 09:45:29;;;;;;;4.65;4.45;;;16.20;70.50;;;;;;5030714;28;20030;-75
2021/10/07 09:48:00;;;;;;;3.95;3.75;;;16.20;70.50;;;;;;5031109;28;20048;-74
2021/10/07 09:50:36;;;;;;;4.40;4.20;;;16.20;70.40;;;;;;5029420;28;20037;-81
2021/10/07 09:53:16;;;;;;;4.30;4.10;;;16.20;70.40;;;;;;5059748;28;20373;-79
2021/10/07 09:55:47;;;;;;;4.50;4.30;;;16.20;70.50;;;;;;5028653;28;20041;-79
2021/10/07 09:58:17;;;;;;;4.80;4.28;;;16.20;70.50;;;;;;5026513;28;20040;-81
2021/10/07 10:00:45;;;;;;;4.70;4.50;;;16.30;70.50;;;;;;5021776;28;20048;-82
2021/10/07 10:03:11;;;;;;;4.38;4.18;;;16.30;70.40;;;;;;5025433;28;21139;-80
2021/10/07 10:05:38;;;;;;;4.82;4.63;;;16.40;70.30;;;;;;5013521;28;20025;-81
2021/10/07 10:08:06;;;;;;;4.75;4.55;;;16.50;70.10;;;;;;5029699;28;20041;-81
2021/10/07 10:10:32;;;;;;;4.95;4.75;;;16.60;70.00;;;;;;5032085;28;20021;-82
2021/10/07 10:12:58;;;;;;;5.50;5.30;;;16.70;69.80;;;;;;5030606;28;20685;-83
2021/10/07 10:15:24;;;;;;;5.40;5.20;;;16.80;69.70;;;;;;5030390;28;20037;-84
2021/10/07 10:17:51;;;;;;;5.15;4.95;;;16.90;69.60;;;;;;5031668;28;20037;-81
2021/10/07 10:20:28;;;;;;;5.10;4.90;;;17.00;69.40;;;;;;5031531;28;20060;-83
2021/10/07 10:22:57;;;;;;;5.68;5.40;;;17.10;69.30;;;;;;5014599;28;20029;-82
2021/10/07 10:25:24;;;;;;;7.82;7.13;;;17.20;69.10;;;;;;5024839;28;20033;-82
2021/10/07 10:27:57;;;;;;;6.72;5.57;;;17.30;69.00;;;;;;5020697;28;20038;-83
2021/10/07 10:30:32;;;;;;;5.00;4.80;;;17.30;68.90;;;;;;5030017;28;20036;-83
2021/10/07 10:32:59;;;;;;;5.43;5.22;;;17.40;68.90;;;;;;5031244;28;20034;-81
2021/10/07 10:35:34;;;;;;;5.63;5.35;;;17.50;68.80;;;;;;5028151;28;20032;-83
2021/10/07 10:38:01;;;;;;;5.55;5.25;;;17.60;68.70;;;;;;5049976;28;20041;-82
2021/10/07 10:40:27;;;;;;;5.55;5.30;;;17.60;68.50;;;;;;5031740;28;20037;-83
2021/10/07 10:43:18;;;;;;;5.75;5.45;;;17.60;68.50;;;;;;5059662;28;20051;-82
2021/10/07 10:45:53;;;;;;;5.60;5.35;;;17.60;68.50;;;;;;5032738;28;20037;-83
2021/10/07 10:48:41;;;;;;;5.10;4.90;;;17.70;68.50;;;;;;5045617;28;20041;-83
2021/10/07 10:51:16;;;;;;;5.60;5.35;;;17.80;68.40;;;;;;5032021;28;20025;-81
2021/10/07 10:53:49;;;;;;;5.72;5.43;;;17.80;68.20;;;;;;5059916;28;20029;-83
2021/10/07 10:56:17;;;;;;;6.20;5.90;;;17.90;68.20;;;;;;5031839;28;20026;-82
2021/10/07 10:58:54;;;;;;;5.93;5.63;;;17.90;68.10;;;;;;5029469;28;20021;-82
2021/10/07 11:01:20;;;;;;;5.80;5.50;;;18.00;68.00;;;;;;5028127;28;20415;-83
2021/10/07 11:03:46;;;;;;;5.43;5.22;;;18.00;67.80;;;;;;5033973;28;20053;-83
2021/10/07 11:06:12;;;;;;;6.45;6.13;;;18.00;67.80;;;;;;5030016;28;20044;-81
2021/10/07 11:08:41;;;;;;;6.00;5.70;;;18.10;67.80;;;;;;5028228;28;20037;-82
2021/10/07 11:11:22;;;;;;;5.90;5.60;;;18.20;67.70;;;;;;5022723;28;20036;-81
2021/10/07 11:13:48;;;;;;;6.15;5.85;;;18.40;67.50;;;;;;5020671;28;20361;-81
2021/10/07 11:16:17;;;;;;;6.38;6.07;;;18.50;67.30;;;;;;5011963;28;20025;-81
2021/10/07 11:18:43;;;;;;;6.50;6.20;;;18.60;67.00;;;;;;5028774;28;20042;-81
2021/10/07 11:21:18;;;;;;;6.97;6.68;;;18.60;66.90;;;;;;5029091;28;20045;-80
2021/10/07 11:23:46;;;;;;;6.28;5.97;;;18.70;66.90;;;;;;5027985;28;20491;-81
2021/10/07 11:26:12;;;;;;;6.00;5.70;;;18.70;67.60;;;;;;5056557;28;20052;-82
2021/10/07 11:28:40;;;;;;;6.38;6.07;;;18.80;66.80;;;;;;5019549;28;20025;-82
2021/10/07 11:31:14;;;;;;;6.38;6.07;;;18.80;66.60;;;;;;5027282;28;22275;-83
2021/10/07 11:33:49;;;;;;;6.43;6.13;;;18.90;66.50;;;;;;5028240;28;20026;-82
2021/10/07 11:36:19;;;;;;;6.88;6.55;;;18.90;66.30;;;;;;5023763;28;20037;-82
2021/10/07 11:38:46;;;;;;;6.50;6.20;;;18.90;66.30;;;;;;5012000;28;20464;-81
2021/10/07 11:41:14;;;;;;;6.97;6.68;;;18.90;66.10;;;;;;5025864;28;20041;-82
2021/10/07 11:43:40;;;;;;;7.20;6.88;;;19.00;66.00;;;;;;5028019;28;20037;-82
2021/10/07 11:46:10;;;;;;;6.95;6.65;;;19.00;65.90;;;;;;5024225;28;20037;-83
2021/10/07 11:48:36;;;;;;;7.05;6.75;;;19.10;65.70;;;;;;5013047;28;20037;-83
2021/10/07 11:51:04;;;;;;;7.72;7.38;;;19.20;65.60;;;;;;5028164;28;20361;-83
2021/10/07 11:53:30;;;;;;;7.25;6.95;;;19.30;66.30;;;;;;5022864;28;20033;-82
2021/10/07 11:55:56;;;;;;;6.57;6.28;;;19.30;65.40;;;;;;5022232;28;20040;-82
2021/10/07 11:58:25;;;;;;;7.35;7.05;;;19.40;65.20;;;;;;5025176;28;20034;-82
2021/10/07 12:00:52;;;;;;;7.38;6.97;;;19.50;65.00;;;;;;5029111;28;20064;-82
2021/10/07 12:03:29;;;;;;;7.15;6.85;;;19.60;64.80;;;;;;5020271;28;20030;-82
2021/10/07 12:06:12;;;;;;;7.22;6.93;;;19.60;64.50;;;;;;5013463;28;20392;-82
2021/10/07 12:08:44;;;;;;;7.00;6.70;;;19.60;64.00;;;;;;5028452;28;20034;-84
2021/10/07 12:11:11;;;;;;;7.45;7.15;;;19.60;64.00;;;;;;5024610;28;20022;-84
2021/10/07 12:13:39;;;;;;;7.63;7.28;;;19.60;64.10;;;;;;5024048;28;20021;-85
2021/10/07 12:16:16;;;;;;;9.10;8.40;;;19.70;64.10;;;;;;5033491;28;20044;-85
2021/10/07 12:18:54;;;;;;;7.20;6.90;;;19.80;64.00;;;;;;5029261;28;20464;-83
2021/10/07 12:21:21;;;;;;;7.10;6.80;;;19.90;63.70;;;;;;5032989;28;20045;-84
2021/10/07 12:24:00;;;;;;;8.23;7.82;;;19.90;63.50;;;;;;5032604;28;20026;-82
2021/10/07 12:26:33;;;;;;;7.93;7.55;;;20.10;63.30;;;;;;5033734;28;20093;-82
2021/10/07 12:29:01;;;;;;;7.55;7.25;;;20.00;63.00;;;;;;5033508;28;20033;-82
2021/10/07 12:31:30;;;;;;;7.70;7.35;;;20.00;63.20;;;;;;5032333;28;20029;-81
2021/10/07 12:34:02;;;;;;;7.68;7.35;;;19.90;63.20;;;;;;5032700;28;20021;-82
2021/10/07 12:36:32;;;;;;;7.57;7.25;;;19.90;63.20;;;;;;5029056;28;20393;-82
2021/10/07 12:38:58;;;;;;;7.65;7.32;;;19.80;63.30;;;;;;5031492;28;20036;-82
2021/10/07 12:41:36;;;;;;;7.82;7.28;;;19.80;63.10;;;;;;5009923;28;20377;-82
2021/10/07 12:44:03;;;;;;;7.88;7.47;;;19.80;63.10;;;;;;5024193;28;20033;-82
2021/10/07 12:46:29;;;;;;;7.30;7.00;;;19.80;63.10;;;;;;5033211;28;20029;-82
2021/10/07 12:48:56;;;;;;;7.75;7.35;;;20.00;63.00;;;;;;5032580;28;20040;-82
2021/10/07 12:51:25;;;;;;;8.07;7.68;;;20.20;62.70;;;;;;5033894;28;20029;-82
2021/10/07 12:53:51;;;;;;;10.32;7.72;;;20.40;62.40;;;;;;5026038;28;20045;-82